CKS261 RJGG-KCVG
Flight info
| Callsign | CKS261 |
|---|---|
| Flight time | N/A |
| Altitude | 33000 |
| Route | CBE MORIZ TSUGU CHAUS TENRU Y88 DAIGO Y889 PUTER A590 POWAL R330 SYA DCT DRAPP DCT 56N170W 57N160W DCT CJAYY DCT 57N140W 56N130W 5430N12000W 5230N11000W 49N100W DCT GFK DCT GEP J36 ODI DCT BRIBE J30 COTON DCT ZABNU CEGRM8 |
| Aircraft | B77L/H-SDE1E2E3FGHIJ2J3J4J5M1RWXY/LB1D1 |
Departure
| Time | 2026-05-04 08:08 |
|---|---|
| Airport | Chubu Centrair International Airport (RJGG) |
Arrival
| Time | N/A |
|---|---|
| Airport | Cincinnati Northern Kentucky International Airport (KCVG) |
| Time | Latitude | Longitude | Altitude | Speed | Heading |
|---|---|---|---|---|---|
| 2026-05-04 07:44 | 34.87007 | 136.80809 | 15 ft | 0 kts | 78° |
| 2026-05-04 07:56 | 34.87005 | 136.80794 | 15 ft | 2 kts | 78° |
| 2026-05-04 07:56 | 34.87002 | 136.80777 | 15 ft | 2 kts | 78° |
| 2026-05-04 07:56 | 34.86999 | 136.80759 | 15 ft | 2 kts | 78° |
| 2026-05-04 07:57 | 34.86997 | 136.80740 | 15 ft | 2 kts | 98° |
| 2026-05-04 07:57 | 34.87001 | 136.80724 | 15 ft | 2 kts | 128° |
| 2026-05-04 07:57 | 34.87012 | 136.80711 | 15 ft | 2 kts | 155° |
| 2026-05-04 07:57 | 34.87020 | 136.80708 | 15 ft | 0 kts | 169° |
| 2026-05-04 07:58 | 34.87023 | 136.80707 | 15 ft | 0 kts | 169° |
| 2026-05-04 07:59 | 34.87016 | 136.80710 | 15 ft | 3 kts | 168° |
| 2026-05-04 07:59 | 34.86975 | 136.80719 | 15 ft | 9 kts | 168° |
| 2026-05-04 08:00 | 34.86897 | 136.80739 | 15 ft | 9 kts | 168° |
| 2026-05-04 08:00 | 34.86839 | 136.80722 | 15 ft | 8 kts | 232° |
| 2026-05-04 08:00 | 34.86824 | 136.80659 | 15 ft | 6 kts | 259° |
| 2026-05-04 08:02 | 34.86169 | 136.80705 | 15 ft | 24 kts | 169° |
| 2026-05-04 08:02 | 34.85996 | 136.80747 | 15 ft | 25 kts | 169° |
| 2026-05-04 08:02 | 34.85825 | 136.80788 | 15 ft | 24 kts | 169° |
| 2026-05-04 08:03 | 34.85658 | 136.80827 | 15 ft | 23 kts | 169° |
| 2026-05-04 08:03 | 34.85498 | 136.80867 | 15 ft | 23 kts | 168° |
| 2026-05-04 08:03 | 34.85339 | 136.80905 | 15 ft | 24 kts | 169° |
| 2026-05-04 08:03 | 34.85170 | 136.80945 | 15 ft | 25 kts | 169° |
| 2026-05-04 08:04 | 34.84992 | 136.80989 | 15 ft | 26 kts | 169° |
| 2026-05-04 08:04 | 34.84812 | 136.81030 | 15 ft | 25 kts | 168° |
| 2026-05-04 08:04 | 34.84645 | 136.81071 | 15 ft | 23 kts | 169° |
| 2026-05-04 08:04 | 34.84495 | 136.81108 | 15 ft | 20 kts | 169° |
| 2026-05-04 08:05 | 34.84387 | 136.81134 | 15 ft | 8 kts | 171° |
| 2026-05-04 08:05 | 34.84343 | 136.81102 | 15 ft | 7 kts | 243° |
| 2026-05-04 08:05 | 34.84330 | 136.81049 | 15 ft | 5 kts | 258° |
| 2026-05-04 08:05 | 34.84319 | 136.80986 | 15 ft | 8 kts | 258° |
| 2026-05-04 08:06 | 34.84311 | 136.80925 | 15 ft | 5 kts | 279° |
| 2026-05-04 08:06 | 34.84333 | 136.80901 | 15 ft | 3 kts | 345° |
| 2026-05-04 08:06 | 34.84352 | 136.80896 | 15 ft | 14 kts | 349° |
| 2026-05-04 08:06 | 34.84709 | 136.80812 | 15 ft | 89 kts | 348° |
| 2026-05-04 08:08 | 34.93721 | 136.77684 | 3800 ft | 234 kts | 339° |
| 2026-05-04 08:08 | 34.95282 | 136.77071 | 4625 ft | 239 kts | 339° |
| 2026-05-04 08:10 | 35.09033 | 136.74815 | 10241 ft | 313 kts | 33° |
| 2026-05-04 08:11 | 35.10571 | 136.76884 | 10446 ft | 344 kts | 54° |
| 2026-05-04 08:11 | 35.11565 | 136.82936 | 10899 ft | 394 kts | 100° |
| 2026-05-04 08:11 | 35.10932 | 136.86336 | 11141 ft | 415 kts | 105° |
| 2026-05-04 08:12 | 35.10273 | 136.89831 | 11650 ft | 427 kts | 103° |
| 2026-05-04 08:12 | 35.09679 | 136.93379 | 12432 ft | 431 kts | 103° |
| 2026-05-04 08:12 | 35.09119 | 136.97003 | 13145 ft | 437 kts | 103° |
| 2026-05-04 08:12 | 35.08583 | 137.00688 | 13781 ft | 445 kts | 103° |
| 2026-05-04 08:13 | 35.08064 | 137.04410 | 14427 ft | 452 kts | 103° |
| 2026-05-04 08:13 | 35.07547 | 137.08221 | 15148 ft | 456 kts | 104° |
| 2026-05-04 08:13 | 35.07035 | 137.12070 | 15678 ft | 465 kts | 104° |
| 2026-05-04 08:13 | 35.06582 | 137.15977 | 16204 ft | 476 kts | 98° |
| 2026-05-04 08:14 | 35.06573 | 137.20059 | 16771 ft | 487 kts | 88° |
| 2026-05-04 08:14 | 35.07088 | 137.24158 | 17305 ft | 497 kts | 78° |
| 2026-05-04 08:14 | 35.08141 | 137.28197 | 17863 ft | 503 kts | 68° |
| 2026-05-04 08:16 | 35.20946 | 137.55032 | 21341 ft | 542 kts | 59° |
| 2026-05-04 08:16 | 35.22838 | 137.59027 | 21722 ft | 549 kts | 59° |
| 2026-05-04 08:16 | 35.24750 | 137.63083 | 22099 ft | 557 kts | 59° |
| 2026-05-04 08:17 | 35.26682 | 137.67197 | 22536 ft | 561 kts | 60° |
| 2026-05-04 08:17 | 35.28635 | 137.71365 | 22937 ft | 566 kts | 61° |
| 2026-05-04 08:17 | 35.30604 | 137.75558 | 23384 ft | 570 kts | 59° |
| 2026-05-04 08:17 | 35.32587 | 137.79701 | 23799 ft | 573 kts | 60° |
| 2026-05-04 08:19 | 35.53368 | 138.01128 | 26809 ft | 573 kts | 12° |
| 2026-05-04 08:19 | 35.57075 | 138.03012 | 27231 ft | 585 kts | 20° |
| 2026-05-04 08:20 | 35.60599 | 138.05492 | 27790 ft | 593 kts | 28° |
| 2026-05-04 08:20 | 35.63939 | 138.08585 | 28221 ft | 603 kts | 37° |
| 2026-05-04 08:20 | 35.66929 | 138.12163 | 28646 ft | 611 kts | 46° |
| 2026-05-04 08:20 | 35.69634 | 138.16261 | 29091 ft | 616 kts | 52° |
| 2026-05-04 08:21 | 35.72087 | 138.20541 | 29797 ft | 614 kts | 57° |
| 2026-05-04 08:21 | 35.74353 | 138.24870 | 30603 ft | 609 kts | 59° |
| 2026-05-04 08:21 | 35.76537 | 138.29344 | 31340 ft | 606 kts | 61° |
| 2026-05-04 08:21 | 35.78590 | 138.33804 | 31960 ft | 604 kts | 62° |
| 2026-05-04 08:22 | 35.80611 | 138.38374 | 32377 ft | 606 kts | 64° |
| 2026-05-04 08:22 | 35.82564 | 138.42953 | 32752 ft | 609 kts | 63° |
| 2026-05-04 08:24 | 35.97366 | 138.80402 | 32735 ft | 609 kts | 67° |
| 2026-05-04 08:24 | 36.00963 | 138.89876 | 32731 ft | 609 kts | 67° |
| 2026-05-04 08:25 | 36.04534 | 138.99344 | 32721 ft | 607 kts | 68° |
| 2026-05-04 08:25 | 36.08088 | 139.08820 | 32691 ft | 604 kts | 68° |
| 2026-05-04 08:27 | 36.24554 | 139.45047 | 32651 ft | 606 kts | 54° |
| 2026-05-04 08:28 | 36.29504 | 139.53468 | 32646 ft | 607 kts | 53° |
| 2026-05-04 08:28 | 36.34446 | 139.61906 | 32654 ft | 608 kts | 54° |
| 2026-05-04 08:29 | 36.39440 | 139.70460 | 32635 ft | 608 kts | 54° |
| 2026-05-04 08:31 | 36.58651 | 140.04892 | 32628 ft | 609 kts | 57° |
| 2026-05-04 08:33 | 36.76469 | 140.40654 | 32655 ft | 606 kts | 70° |
| 2026-05-04 08:35 | 36.89970 | 140.78879 | 32644 ft | 603 kts | 70° |
| 2026-05-04 08:35 | 36.93324 | 140.88444 | 32651 ft | 601 kts | 71° |
| 2026-05-04 08:37 | 37.04972 | 141.21907 | 32662 ft | 601 kts | 70° |
| 2026-05-04 08:38 | 37.08286 | 141.31497 | 32658 ft | 601 kts | 71° |
| 2026-05-04 08:38 | 37.11591 | 141.41086 | 32636 ft | 601 kts | 70° |
| 2026-05-04 08:40 | 37.24663 | 141.79341 | 32627 ft | 605 kts | 71° |
| 2026-05-04 08:41 | 37.27947 | 141.89024 | 32633 ft | 601 kts | 71° |
| 2026-05-04 08:41 | 37.31203 | 141.98660 | 32642 ft | 605 kts | 71° |
| 2026-05-04 08:42 | 37.34444 | 142.08278 | 32652 ft | 599 kts | 71° |
| 2026-05-04 08:42 | 37.37678 | 142.17912 | 32656 ft | 602 kts | 71° |
| 2026-05-04 08:43 | 37.40913 | 142.27579 | 32658 ft | 599 kts | 71° |
| 2026-05-04 08:43 | 37.44173 | 142.37354 | 32657 ft | 598 kts | 71° |
| 2026-05-04 08:44 | 37.47372 | 142.46976 | 32650 ft | 596 kts | 71° |
| 2026-05-04 08:46 | 37.60254 | 142.86346 | 32630 ft | 595 kts | 72° |
| 2026-05-04 08:46 | 37.63363 | 142.96078 | 32631 ft | 591 kts | 73° |
| 2026-05-04 08:47 | 37.66439 | 143.05743 | 32633 ft | 595 kts | 73° |
| 2026-05-04 08:47 | 37.69502 | 143.15390 | 32641 ft | 592 kts | 73° |
| 2026-05-04 08:48 | 37.72541 | 143.24999 | 32645 ft | 591 kts | 73° |
| 2026-05-04 08:48 | 37.75583 | 143.34648 | 32654 ft | 593 kts | 72° |
| 2026-05-04 08:49 | 37.78615 | 143.44296 | 32655 ft | 592 kts | 72° |
| 2026-05-04 08:50 | 37.88321 | 143.78578 | 32629 ft | 589 kts | 76° |
| 2026-05-04 08:51 | 37.90997 | 143.88632 | 32636 ft | 589 kts | 77° |
| 2026-05-04 08:51 | 37.93671 | 143.98688 | 32634 ft | 591 kts | 77° |
| 2026-05-04 08:52 | 37.96352 | 144.08798 | 32629 ft | 589 kts | 76° |
| 2026-05-04 08:52 | 37.99017 | 144.18872 | 32630 ft | 585 kts | 77° |
| 2026-05-04 08:54 | 38.09612 | 144.59309 | 32648 ft | 585 kts | 76° |
| 2026-05-04 08:55 | 38.12226 | 144.69383 | 32619 ft | 582 kts | 77° |
| 2026-05-04 08:55 | 38.14742 | 144.79118 | 32613 ft | 584 kts | 77° |
| 2026-05-04 09:01 | 38.52414 | 145.74641 | 32591 ft | 591 kts | 41° |
| 2026-05-04 09:01 | 38.58470 | 145.81751 | 32596 ft | 594 kts | 40° |
| 2026-05-04 09:02 | 38.64545 | 145.88928 | 32602 ft | 594 kts | 41° |
| 2026-05-04 09:02 | 38.70563 | 145.96071 | 32605 ft | 594 kts | 40° |
| 2026-05-04 09:03 | 38.76630 | 146.03299 | 32596 ft | 595 kts | 40° |
| 2026-05-04 09:03 | 38.82650 | 146.10495 | 32595 ft | 593 kts | 41° |
| 2026-05-04 09:04 | 38.88654 | 146.17691 | 32600 ft | 595 kts | 41° |
| 2026-05-04 09:04 | 38.94710 | 146.24970 | 32615 ft | 595 kts | 40° |
| 2026-05-04 09:05 | 39.00710 | 146.32201 | 32614 ft | 596 kts | 41° |
| 2026-05-04 09:05 | 39.06726 | 146.39468 | 32599 ft | 594 kts | 40° |
| 2026-05-04 09:06 | 39.12745 | 146.46758 | 32582 ft | 594 kts | 40° |
| 2026-05-04 09:08 | 39.36829 | 146.76111 | 32562 ft | 595 kts | 41° |
| 2026-05-04 09:08 | 39.42838 | 146.83481 | 32563 ft | 598 kts | 40° |
| 2026-05-04 09:09 | 39.48829 | 146.90846 | 32561 ft | 596 kts | 41° |
| 2026-05-04 09:09 | 39.54848 | 146.98263 | 32557 ft | 598 kts | 41° |
| 2026-05-04 09:10 | 39.60855 | 147.05685 | 32555 ft | 598 kts | 41° |
| 2026-05-04 09:10 | 39.66879 | 147.13148 | 32558 ft | 600 kts | 40° |
| 2026-05-04 09:11 | 39.72866 | 147.20586 | 32561 ft | 597 kts | 40° |
| 2026-05-04 09:11 | 39.78832 | 147.28012 | 32560 ft | 600 kts | 40° |
| 2026-05-04 09:12 | 39.84844 | 147.35516 | 32557 ft | 599 kts | 41° |
| 2026-05-04 09:14 | 40.08820 | 147.65634 | 32557 ft | 599 kts | 42° |
| 2026-05-04 09:14 | 40.14789 | 147.73183 | 32518 ft | 598 kts | 41° |
| 2026-05-04 09:15 | 40.20717 | 147.80696 | 32517 ft | 598 kts | 41° |
| 2026-05-04 09:15 | 40.26678 | 147.88272 | 32514 ft | 599 kts | 42° |
| 2026-05-04 09:17 | 40.53407 | 148.22484 | 32511 ft | 598 kts | 43° |
| 2026-05-04 09:18 | 40.59346 | 148.30141 | 32516 ft | 598 kts | 42° |
| 2026-05-04 09:18 | 40.65226 | 148.37741 | 32519 ft | 596 kts | 42° |
| 2026-05-04 09:19 | 40.71194 | 148.45474 | 32518 ft | 598 kts | 41° |
| 2026-05-04 09:19 | 40.77077 | 148.53119 | 32517 ft | 598 kts | 41° |
| 2026-05-04 09:20 | 40.83009 | 148.60847 | 32519 ft | 597 kts | 42° |
| 2026-05-04 09:20 | 40.88877 | 148.68514 | 32490 ft | 598 kts | 43° |
| 2026-05-04 09:21 | 40.94767 | 148.76227 | 32492 ft | 598 kts | 43° |
| 2026-05-04 09:21 | 41.00661 | 148.83968 | 32481 ft | 597 kts | 43° |
| 2026-05-04 09:22 | 41.06525 | 148.91689 | 32489 ft | 597 kts | 43° |
| 2026-05-04 09:22 | 41.12402 | 148.99451 | 32477 ft | 597 kts | 43° |
| 2026-05-04 09:23 | 41.18270 | 149.07225 | 32485 ft | 598 kts | 43° |
| 2026-05-04 09:23 | 41.24121 | 149.14999 | 32490 ft | 597 kts | 43° |
| 2026-05-04 09:25 | 41.47501 | 149.46268 | 32486 ft | 595 kts | 43° |
| 2026-05-04 09:26 | 41.53314 | 149.54095 | 32489 ft | 597 kts | 42° |
| 2026-05-04 09:26 | 41.59159 | 149.61987 | 32482 ft | 598 kts | 42° |
| 2026-05-04 09:27 | 41.64958 | 149.69838 | 32468 ft | 597 kts | 43° |
| 2026-05-04 09:27 | 41.70779 | 149.77740 | 32460 ft | 599 kts | 43° |
| 2026-05-04 09:28 | 41.76730 | 149.85843 | 32473 ft | 598 kts | 43° |
| 2026-05-04 09:28 | 41.82551 | 149.93788 | 32472 ft | 600 kts | 43° |
| 2026-05-04 09:29 | 41.88420 | 150.01822 | 32479 ft | 599 kts | 43° |
| 2026-05-04 09:29 | 41.94225 | 150.09792 | 32474 ft | 597 kts | 42° |
| 2026-05-04 09:30 | 42.00021 | 150.17770 | 32488 ft | 596 kts | 43° |
| 2026-05-04 09:30 | 42.05802 | 150.25751 | 32493 ft | 596 kts | 42° |
| 2026-05-04 09:31 | 42.11536 | 150.33687 | 32475 ft | 595 kts | 42° |
| 2026-05-04 09:31 | 42.17291 | 150.41675 | 32481 ft | 594 kts | 42° |
| 2026-05-04 09:32 | 42.23018 | 150.49646 | 32478 ft | 594 kts | 42° |
| 2026-05-04 09:34 | 42.45852 | 150.81650 | 32476 ft | 594 kts | 43° |
| 2026-05-04 09:34 | 42.51577 | 150.89729 | 32480 ft | 596 kts | 43° |
| 2026-05-04 09:35 | 42.57291 | 150.97818 | 32477 ft | 594 kts | 43° |
| 2026-05-04 09:35 | 42.62982 | 151.05898 | 32482 ft | 593 kts | 43° |
| 2026-05-04 09:37 | 42.85678 | 151.38341 | 32496 ft | 594 kts | 42° |
| 2026-05-04 09:38 | 42.91366 | 151.46532 | 32505 ft | 595 kts | 42° |
| 2026-05-04 09:38 | 42.97017 | 151.54691 | 32514 ft | 593 kts | 41° |
| 2026-05-04 09:39 | 43.02686 | 151.62898 | 32523 ft | 597 kts | 42° |
| 2026-05-04 09:39 | 43.08310 | 151.71066 | 32504 ft | 595 kts | 43° |
| 2026-05-04 09:40 | 43.13988 | 151.79336 | 32487 ft | 593 kts | 43° |
| 2026-05-04 09:40 | 43.19610 | 151.87547 | 32480 ft | 595 kts | 43° |
| 2026-05-04 09:42 | 43.42044 | 152.20554 | 32504 ft | 593 kts | 43° |
| 2026-05-04 09:43 | 43.47661 | 152.28877 | 32504 ft | 593 kts | 43° |
| 2026-05-04 09:43 | 43.53241 | 152.37174 | 32517 ft | 590 kts | 42° |
| 2026-05-04 09:44 | 43.58825 | 152.45496 | 32529 ft | 589 kts | 43° |
| 2026-05-04 09:46 | 43.80980 | 152.78766 | 32536 ft | 587 kts | 43° |
| 2026-05-04 09:46 | 43.86480 | 152.87085 | 32536 ft | 588 kts | 44° |
| 2026-05-04 09:47 | 43.91993 | 152.95450 | 32543 ft | 587 kts | 44° |
| 2026-05-04 09:49 | 44.13846 | 153.28850 | 32552 ft | 588 kts | 44° |
| 2026-05-04 09:51 | 44.32881 | 153.58272 | 32587 ft | 584 kts | 43° |
| 2026-05-04 09:51 | 44.38291 | 153.66689 | 32584 ft | 586 kts | 44° |
| 2026-05-04 09:52 | 44.43713 | 153.75151 | 32568 ft | 587 kts | 44° |
| 2026-05-04 09:52 | 44.49124 | 153.83621 | 32568 ft | 584 kts | 44° |
| 2026-05-04 09:53 | 44.54516 | 153.92087 | 32584 ft | 585 kts | 44° |
| 2026-05-04 09:53 | 44.59900 | 154.00566 | 32588 ft | 584 kts | 44° |
| 2026-05-04 09:54 | 44.65307 | 154.09105 | 32593 ft | 584 kts | 44° |
| 2026-05-04 09:54 | 44.70701 | 154.17653 | 32589 ft | 585 kts | 44° |
| 2026-05-04 09:55 | 44.76096 | 154.26225 | 32625 ft | 588 kts | 44° |
| 2026-05-04 09:55 | 44.81459 | 154.34778 | 32626 ft | 582 kts | 43° |
| 2026-05-04 09:56 | 44.86817 | 154.43352 | 32635 ft | 585 kts | 44° |
| 2026-05-04 09:56 | 44.92077 | 154.51990 | 32649 ft | 587 kts | 44° |
| 2026-05-04 09:57 | 44.97349 | 154.60696 | 32637 ft | 582 kts | 44° |
| 2026-05-04 09:57 | 45.02612 | 154.69408 | 32629 ft | 582 kts | 44° |
| 2026-05-04 09:58 | 45.07872 | 154.78134 | 32630 ft | 586 kts | 44° |
| 2026-05-04 09:58 | 45.13112 | 154.86858 | 32635 ft | 580 kts | 44° |
| 2026-05-04 10:00 | 45.33982 | 155.21849 | 32681 ft | 582 kts | 44° |
| 2026-05-04 10:04 | 45.70182 | 155.83598 | 32695 ft | 582 kts | 44° |
| 2026-05-04 10:04 | 45.75400 | 155.92613 | 32697 ft | 579 kts | 44° |
| 2026-05-04 10:05 | 45.80538 | 156.01518 | 32706 ft | 579 kts | 43° |
| 2026-05-04 10:05 | 45.85622 | 156.10356 | 32723 ft | 579 kts | 44° |
| 2026-05-04 10:06 | 45.90718 | 156.19246 | 32719 ft | 578 kts | 44° |
| 2026-05-04 10:06 | 45.95801 | 156.28139 | 32738 ft | 578 kts | 44° |
| 2026-05-04 10:08 | 46.13690 | 156.59666 | 32761 ft | 577 kts | 44° |
| 2026-05-04 10:08 | 46.18853 | 156.68831 | 32744 ft | 581 kts | 44° |
| 2026-05-04 10:09 | 46.23915 | 156.77846 | 32743 ft | 581 kts | 44° |
| 2026-05-04 10:09 | 46.28956 | 156.86856 | 32774 ft | 580 kts | 45° |
| 2026-05-04 10:10 | 46.34043 | 156.95976 | 32778 ft | 578 kts | 44° |
| 2026-05-04 10:10 | 46.39019 | 157.04929 | 32785 ft | 579 kts | 44° |
| 2026-05-04 10:11 | 46.44055 | 157.14015 | 32793 ft | 577 kts | 45° |
| 2026-05-04 10:11 | 46.49066 | 157.23088 | 32794 ft | 576 kts | 44° |
| 2026-05-04 10:12 | 46.54028 | 157.32101 | 32813 ft | 575 kts | 44° |
| 2026-05-04 10:12 | 46.58999 | 157.41157 | 32814 ft | 575 kts | 44° |
| 2026-05-04 10:13 | 46.64006 | 157.50310 | 32815 ft | 577 kts | 44° |
| 2026-05-04 10:13 | 46.68987 | 157.59448 | 32824 ft | 577 kts | 44° |
| 2026-05-04 10:14 | 46.73942 | 157.68567 | 32818 ft | 577 kts | 45° |
| 2026-05-04 10:16 | 46.93695 | 158.05223 | 32857 ft | 575 kts | 45° |
| 2026-05-04 10:16 | 46.98604 | 158.14410 | 32851 ft | 574 kts | 45° |
| 2026-05-04 10:17 | 47.03539 | 158.23673 | 32862 ft | 577 kts | 45° |
| 2026-05-04 10:19 | 47.23080 | 158.60671 | 32883 ft | 575 kts | 45° |
| 2026-05-04 10:19 | 47.27968 | 158.69998 | 32857 ft | 579 kts | 46° |
| 2026-05-04 10:20 | 47.32829 | 158.79317 | 32884 ft | 576 kts | 46° |
| 2026-05-04 10:20 | 47.37707 | 158.88693 | 32877 ft | 576 kts | 46° |
| 2026-05-04 10:21 | 47.42598 | 158.98126 | 32885 ft | 576 kts | 45° |
| 2026-05-04 10:21 | 47.47429 | 159.07481 | 32886 ft | 573 kts | 45° |
| 2026-05-04 10:22 | 47.54672 | 159.21561 | 32880 ft | 573 kts | 45° |
| 2026-05-04 10:23 | 47.59488 | 159.30954 | 32885 ft | 580 kts | 45° |
| 2026-05-04 10:25 | 47.78744 | 159.68877 | 32882 ft | 578 kts | 46° |
| 2026-05-04 10:25 | 47.83557 | 159.78439 | 32883 ft | 572 kts | 45° |
| 2026-05-04 10:26 | 47.88319 | 159.87932 | 32883 ft | 574 kts | 46° |
| 2026-05-04 10:26 | 47.93079 | 159.97453 | 32889 ft | 573 kts | 45° |
| 2026-05-04 10:27 | 47.97780 | 160.06891 | 32899 ft | 574 kts | 45° |
| 2026-05-04 10:27 | 48.02531 | 160.16460 | 32902 ft | 572 kts | 45° |
| 2026-05-04 10:28 | 48.07236 | 160.25970 | 32901 ft | 573 kts | 45° |
| 2026-05-04 10:28 | 48.11981 | 160.35593 | 32909 ft | 572 kts | 45° |
| 2026-05-04 10:29 | 48.16708 | 160.45215 | 32913 ft | 573 kts | 45° |
| 2026-05-04 10:29 | 48.21402 | 160.54803 | 32915 ft | 571 kts | 45° |
| 2026-05-04 10:30 | 48.26088 | 160.64407 | 32921 ft | 574 kts | 45° |
| 2026-05-04 10:30 | 48.30744 | 160.74165 | 32904 ft | 573 kts | 47° |
| 2026-05-04 10:31 | 48.35272 | 160.84023 | 32908 ft | 578 kts | 47° |
| 2026-05-04 10:32 | 48.51064 | 161.18614 | 32913 ft | 574 kts | 47° |
| 2026-05-04 10:33 | 48.55562 | 161.28532 | 32919 ft | 573 kts | 47° |
| 2026-05-04 10:33 | 48.60030 | 161.38420 | 32914 ft | 573 kts | 46° |
| 2026-05-04 10:34 | 48.64496 | 161.48340 | 32922 ft | 570 kts | 46° |
| 2026-05-04 10:34 | 48.68919 | 161.58199 | 32921 ft | 569 kts | 46° |
| 2026-05-04 10:35 | 48.73354 | 161.68123 | 32893 ft | 566 kts | 47° |
| 2026-05-04 10:35 | 48.77771 | 161.78029 | 32888 ft | 570 kts | 47° |
| 2026-05-04 10:36 | 48.82160 | 161.87921 | 32890 ft | 569 kts | 47° |
| 2026-05-04 10:36 | 48.86529 | 161.97809 | 32890 ft | 565 kts | 46° |
| 2026-05-04 10:37 | 48.90933 | 162.07802 | 32888 ft | 566 kts | 46° |
| 2026-05-04 10:37 | 48.95272 | 162.17691 | 32895 ft | 564 kts | 46° |
| 2026-05-04 10:39 | 49.10405 | 162.52455 | 32895 ft | 563 kts | 46° |
| 2026-05-04 10:40 | 49.14727 | 162.62463 | 32900 ft | 565 kts | 46° |
| 2026-05-04 10:40 | 49.19018 | 162.72450 | 32881 ft | 561 kts | 46° |
| 2026-05-04 10:41 | 49.23289 | 162.82414 | 32878 ft | 563 kts | 46° |
| 2026-05-04 10:41 | 49.27519 | 162.92328 | 32885 ft | 562 kts | 46° |
| 2026-05-04 10:42 | 49.31770 | 163.02321 | 32886 ft | 562 kts | 46° |
| 2026-05-04 10:42 | 49.35998 | 163.12306 | 32895 ft | 560 kts | 46° |
| 2026-05-04 10:43 | 49.40234 | 163.22337 | 32886 ft | 563 kts | 46° |
| 2026-05-04 10:45 | 49.57023 | 163.62506 | 32885 ft | 554 kts | 45° |
| 2026-05-04 10:45 | 49.61194 | 163.72565 | 32865 ft | 561 kts | 46° |
| 2026-05-04 10:46 | 49.65355 | 163.82657 | 32873 ft | 560 kts | 46° |
| 2026-05-04 10:46 | 49.69526 | 163.92806 | 32874 ft | 559 kts | 46° |
| 2026-05-04 10:47 | 49.73683 | 164.02963 | 32864 ft | 555 kts | 46° |
| 2026-05-04 10:47 | 49.77788 | 164.13023 | 32868 ft | 559 kts | 45° |
| 2026-05-04 10:49 | 49.94145 | 164.53507 | 32869 ft | 560 kts | 45° |
| 2026-05-04 10:50 | 49.98216 | 164.63695 | 32881 ft | 553 kts | 45° |
| 2026-05-04 10:52 | 50.14343 | 165.04393 | 32879 ft | 554 kts | 46° |
| 2026-05-04 10:52 | 50.18239 | 165.14703 | 32886 ft | 554 kts | 49° |
| 2026-05-04 10:54 | 50.32621 | 165.57269 | 32878 ft | 556 kts | 50° |
| 2026-05-04 10:56 | 50.44996 | 165.94562 | 32855 ft | 543 kts | 51° |
| 2026-05-04 10:56 | 50.46727 | 165.99817 | 32866 ft | 546 kts | 50° |
| 2026-05-04 10:57 | 50.50215 | 166.10445 | 32859 ft | 540 kts | 51° |
| 2026-05-04 10:57 | 50.53646 | 166.20931 | 32855 ft | 548 kts | 51° |
| 2026-05-04 10:58 | 50.57101 | 166.31560 | 32848 ft | 543 kts | 51° |